sensor_id;sensor_type;location;lat;lon;timestamp;pressure;altitude;pressure_sealevel;temperature;humidity
10474;BME280;5284;50.446;7.904;2023-01-29T00:00:48;99701.00;;;-1.40;100.00
10474;BME280;5284;50.446;7.904;2023-01-29T00:05:53;99716.81;;;-1.44;100.00
10474;BME280;5284;50.446;7.904;2023-01-29T00:10:59;99714.22;;;-1.46;100.00
10474;BME280;5284;50.446;7.904;2023-01-29T00:16:02;99707.31;;;-1.50;100.00
10474;BME280;5284;50.446;7.904;2023-01-29T00:21:09;99704.78;;;-1.54;100.00
10474;BME280;5284;50.446;7.904;2023-01-29T00:26:12;99688.38;;;-1.62;100.00
10474;BME280;5284;50.446;7.904;2023-01-29T00:31:19;99686.78;;;-1.70;100.00
10474;BME280;5284;50.446;7.904;2023-01-29T00:36:25;99686.00;;;-1.74;100.00
10474;BME280;5284;50.446;7.904;2023-01-29T00:41:29;99676.53;;;-1.81;100.00
10474;BME280;5284;50.446;7.904;2023-01-29T00:46:50;99670.66;;;-1.93;100.00
10474;BME280;5284;50.446;7.904;2023-01-29T00:51:54;99668.16;;;-1.99;100.00
10474;BME280;5284;50.446;7.904;2023-01-29T00:57:14;99660.47;;;-2.07;100.00
10474;BME280;5284;50.446;7.904;2023-01-29T01:02:18;99650.94;;;-2.11;100.00
10474;BME280;5284;50.446;7.904;2023-01-29T01:07:39;99644.25;;;-2.27;100.00
10474;BME280;5284;50.446;7.904;2023-01-29T01:12:42;99641.94;;;-2.45;100.00
10474;BME280;5284;50.446;7.904;2023-01-29T01:17:45;99638.50;;;-2.47;100.00
10474;BME280;5284;50.446;7.904;2023-01-29T01:22:52;99619.50;;;-2.55;100.00
10474;BME280;5284;50.446;7.904;2023-01-29T01:27:57;99625.78;;;-2.66;100.00
10474;BME280;5284;50.446;7.904;2023-01-29T01:33:04;99624.09;;;-2.72;100.00
10474;BME280;5284;50.446;7.904;2023-01-29T01:38:08;99632.03;;;-2.78;100.00
10474;BME280;5284;50.446;7.904;2023-01-29T01:43:10;99629.56;;;-2.88;100.00
10474;BME280;5284;50.446;7.904;2023-01-29T01:48:16;99635.66;;;-2.88;100.00
10474;BME280;5284;50.446;7.904;2023-01-29T01:53:25;99638.34;;;-2.94;100.00
10474;BME280;5284;50.446;7.904;2023-01-29T01:58:32;99634.16;;;-3.03;100.00
10474;BME280;5284;50.446;7.904;2023-01-29T02:03:46;99629.91;;;-3.10;100.00
10474;BME280;5284;50.446;7.904;2023-01-29T02:09:15;99636.91;;;-3.14;100.00
10474;BME280;5284;50.446;7.904;2023-01-29T02:14:39;99656.94;;;-3.19;100.00
10474;BME280;5284;50.446;7.904;2023-01-29T02:19:46;99653.50;;;-3.19;100.00
10474;BME280;5284;50.446;7.904;2023-01-29T02:25:25;99663.88;;;-3.16;100.00
10474;BME280;5284;50.446;7.904;2023-01-29T02:30:36;99654.31;;;-3.16;100.00
10474;BME280;5284;50.446;7.904;2023-01-29T02:35:44;99658.69;;;-3.18;100.00
10474;BME280;5284;50.446;7.904;2023-01-29T02:40:52;99654.41;;;-3.23;100.00
10474;BME280;5284;50.446;7.904;2023-01-29T02:46:06;99640.59;;;-3.30;100.00
10474;BME280;5284;50.446;7.904;2023-01-29T02:51:17;99632.03;;;-3.38;100.00
10474;BME280;5284;50.446;7.904;2023-01-29T02:56:25;99624.22;;;-3.39;100.00
10474;BME280;5284;50.446;7.904;2023-01-29T03:01:34;99620.81;;;-3.46;100.00
10474;BME280;5284;50.446;7.904;2023-01-29T03:06:42;99624.34;;;-3.50;100.00
10474;BME280;5284;50.446;7.904;2023-01-29T03:11:48;99628.91;;;-3.68;100.00
10474;BME280;5284;50.446;7.904;2023-01-29T03:16:57;99623.66;;;-3.64;100.00
10474;BME280;5284;50.446;7.904;2023-01-29T03:22:03;99621.13;;;-3.70;100.00
10474;BME280;5284;50.446;7.904;2023-01-29T03:27:11;99631.66;;;-3.80;100.00
10474;BME280;5284;50.446;7.904;2023-01-29T03:32:34;99636.81;;;-3.77;100.00
10474;BME280;5284;50.446;7.904;2023-01-29T03:37:41;99641.22;;;-3.84;100.00
10474;BME280;5284;50.446;7.904;2023-01-29T03:42:55;99639.56;;;-3.91;100.00
10474;BME280;5284;50.446;7.904;2023-01-29T03:48:07;99643.13;;;-3.99;100.00
10474;BME280;5284;50.446;7.904;2023-01-29T03:53:17;99653.53;;;-3.99;100.00
10474;BME280;5284;50.446;7.904;2023-01-29T03:58:28;99641.41;;;-4.00;100.00
10474;BME280;5284;50.446;7.904;2023-01-29T04:03:39;99638.84;;;-4.02;100.00
10474;BME280;5284;50.446;7.904;2023-01-29T04:08:48;99646.69;;;-4.05;100.00
10474;BME280;5284;50.446;7.904;2023-01-29T04:13:55;99654.53;;;-4.09;100.00
10474;BME280;5284;50.446;7.904;2023-01-29T04:19:00;99661.47;;;-4.13;100.00
10474;BME280;5284;50.446;7.904;2023-01-29T04:24:09;99651.91;;;-4.08;100.00
10474;BME280;5284;50.446;7.904;2023-01-29T04:29:23;99639.78;;;-4.12;100.00
10474;BME280;5284;50.446;7.904;2023-01-29T04:34:39;99633.72;;;-4.14;100.00
10474;BME280;5284;50.446;7.904;2023-01-29T04:39:48;99618.16;;;-4.18;100.00
10474;BME280;5284;50.446;7.904;2023-01-29T04:44:59;99613.03;;;-4.26;100.00
10474;BME280;5284;50.446;7.904;2023-01-29T04:50:12;99595.69;;;-4.25;100.00
10474;BME280;5284;50.446;7.904;2023-01-29T04:55:24;99597.47;;;-4.32;100.00
10474;BME280;5284;50.446;7.904;2023-01-29T05:00:34;99607.94;;;-4.38;100.00
10474;BME280;5284;50.446;7.904;2023-01-29T05:05:42;99608.78;;;-4.37;100.00
10474;BME280;5284;50.446;7.904;2023-01-29T05:10:47;99607.94;;;-4.39;100.00
10474;BME280;5284;50.446;7.904;2023-01-29T05:15:55;99625.38;;;-4.49;100.00
10474;BME280;5284;50.446;7.904;2023-01-29T05:21:05;99635.66;;;-4.35;100.00
10474;BME280;5284;50.446;7.904;2023-01-29T05:26:08;99632.13;;;-4.25;100.00
10474;BME280;5284;50.446;7.904;2023-01-29T05:31:32;99625.94;;;-4.17;100.00
10474;BME280;5284;50.446;7.904;2023-01-29T05:36:37;99625.88;;;-4.08;100.00
10474;BME280;5284;50.446;7.904;2023-01-29T05:41:40;99629.28;;;-4.03;100.00
10474;BME280;5284;50.446;7.904;2023-01-29T05:46:43;99627.59;;;-4.07;100.00
10474;BME280;5284;50.446;7.904;2023-01-29T05:51:48;99631.00;;;-3.99;100.00
10474;BME280;5284;50.446;7.904;2023-01-29T05:56:50;99623.91;;;-3.88;100.00
10474;BME280;5284;50.446;7.904;2023-01-29T06:01:53;99614.22;;;-3.77;100.00
10474;BME280;5284;50.446;7.904;2023-01-29T06:06:58;99610.66;;;-3.67;100.00
10474;BME280;5284;50.446;7.904;2023-01-29T06:12:02;99595.88;;;-3.66;100.00
10474;BME280;5284;50.446;7.904;2023-01-29T06:17:06;99582.97;;;-3.75;100.00
10474;BME280;5284;50.446;7.904;2023-01-29T06:22:11;99575.16;;;-3.77;100.00
10474;BME280;5284;50.446;7.904;2023-01-29T06:27:13;99574.16;;;-3.65;100.00
10474;BME280;5284;50.446;7.904;2023-01-29T06:32:16;99580.16;;;-3.60;100.00
10474;BME280;5284;50.446;7.904;2023-01-29T06:37:20;99595.78;;;-3.60;100.00
10474;BME280;5284;50.446;7.904;2023-01-29T06:42:23;99591.34;;;-3.51;100.00
10474;BME280;5284;50.446;7.904;2023-01-29T06:47:28;99612.97;;;-3.46;100.00
10474;BME280;5284;50.446;7.904;2023-01-29T06:52:32;99604.19;;;-3.37;100.00
10474;BME280;5284;50.446;7.904;2023-01-29T06:57:35;99611.03;;;-3.29;100.00
10474;BME280;5284;50.446;7.904;2023-01-29T07:02:38;99614.41;;;-3.19;100.00
10474;BME280;5284;50.446;7.904;2023-01-29T07:07:42;99623.75;;;-3.08;100.00
10474;BME280;5284;50.446;7.904;2023-01-29T07:12:45;99635.13;;;-3.10;100.00
10474;BME280;5284;50.446;7.904;2023-01-29T07:17:55;99631.50;;;-2.99;100.00
10474;BME280;5284;50.446;7.904;2023-01-29T07:23:00;99627.91;;;-2.94;100.00
10474;BME280;5284;50.446;7.904;2023-01-29T07:28:03;99634.00;;;-2.95;100.00
10474;BME280;5284;50.446;7.904;2023-01-29T07:33:08;99639.06;;;-2.83;100.00
10474;BME280;5284;50.446;7.904;2023-01-29T07:38:12;99637.16;;;-2.72;100.00
10474;BME280;5284;50.446;7.904;2023-01-29T07:43:15;99632.72;;;-2.67;100.00
10474;BME280;5284;50.446;7.904;2023-01-29T07:48:18;99634.28;;;-2.55;100.00
10474;BME280;5284;50.446;7.904;2023-01-29T07:53:22;99638.41;;;-2.42;100.00
10474;BME280;5284;50.446;7.904;2023-01-29T07:58:25;99650.50;;;-2.37;100.00
10474;BME280;5284;50.446;7.904;2023-01-29T08:03:28;99654.00;;;-2.36;100.00
10474;BME280;5284;50.446;7.904;2023-01-29T08:08:32;99645.00;;;-2.20;100.00
10474;BME280;5284;50.446;7.904;2023-01-29T08:13:35;99652.63;;;-2.07;100.00
10474;BME280;5284;50.446;7.904;2023-01-29T08:18:37;99644.53;;;-1.93;100.00
10474;BME280;5284;50.446;7.904;2023-01-29T08:23:44;99649.47;;;-1.77;100.00
10474;BME280;5284;50.446;7.904;2023-01-29T08:28:47;99632.81;;;-1.73;100.00
10474;BME280;5284;50.446;7.904;2023-01-29T08:33:49;99650.03;;;-1.61;100.00
10474;BME280;5284;50.446;7.904;2023-01-29T08:38:54;99646.41;;;-1.53;100.00
10474;BME280;5284;50.446;7.904;2023-01-29T08:43:56;99647.09;;;-1.45;100.00
10474;BME280;5284;50.446;7.904;2023-01-29T08:49:00;99636.72;;;-1.50;100.00
10474;BME280;5284;50.446;7.904;2023-01-29T08:54:05;99634.88;;;-1.45;100.00
10474;BME280;5284;50.446;7.904;2023-01-29T08:59:08;99654.97;;;-1.47;100.00
10474;BME280;5284;50.446;7.904;2023-01-29T09:04:11;99655.09;;;-1.54;100.00
10474;BME280;5284;50.446;7.904;2023-01-29T09:09:15;99655.28;;;-1.63;100.00
10474;BME280;5284;50.446;7.904;2023-01-29T09:14:18;99653.91;;;-1.38;100.00
10474;BME280;5284;50.446;7.904;2023-01-29T09:19:21;99664.41;;;-1.40;100.00
10474;BME280;5284;50.446;7.904;2023-01-29T09:24:25;99677.28;;;-1.29;100.00
10474;BME280;5284;50.446;7.904;2023-01-29T09:29:28;99692.78;;;-1.20;100.00
10474;BME280;5284;50.446;7.904;2023-01-29T09:34:31;99700.75;;;-1.26;100.00
10474;BME280;5284;50.446;7.904;2023-01-29T09:39:35;99689.88;;;-1.07;100.00
10474;BME280;5284;50.446;7.904;2023-01-29T09:44:54;99690.53;;;-0.96;100.00
10474;BME280;5284;50.446;7.904;2023-01-29T09:50:05;99688.75;;;-0.94;100.00
10474;BME280;5284;50.446;7.904;2023-01-29T09:55:14;99667.47;;;-0.79;100.00
10474;BME280;5284;50.446;7.904;2023-01-29T10:00:23;99641.22;;;-0.76;100.00
10474;BME280;5284;50.446;7.904;2023-01-29T10:05:34;99637.00;;;-0.81;100.00
10474;BME280;5284;50.446;7.904;2023-01-29T10:10:48;99624.38;;;-0.29;100.00
10474;BME280;5284;50.446;7.904;2023-01-29T10:16:08;99614.63;;;-0.58;100.00
10474;BME280;5284;50.446;7.904;2023-01-29T10:21:36;99610.94;;;-0.49;100.00
10474;BME280;5284;50.446;7.904;2023-01-29T10:26:44;99602.19;;;-0.50;100.00
10474;BME280;5284;50.446;7.904;2023-01-29T10:31:51;99608.88;;;-0.03;100.00
10474;BME280;5284;50.446;7.904;2023-01-29T10:36:55;99584.72;;;0.48;100.00
10474;BME280;5284;50.446;7.904;2023-01-29T10:42:12;99595.09;;;0.81;100.00
10474;BME280;5284;50.446;7.904;2023-01-29T10:47:26;99574.97;;;0.82;100.00
10474;BME280;5284;50.446;7.904;2023-01-29T10:52:47;99569.41;;;1.20;100.00
10474;BME280;5284;50.446;7.904;2023-01-29T10:57:59;99559.94;;;0.87;100.00
10474;BME280;5284;50.446;7.904;2023-01-29T11:03:13;99554.75;;;0.56;100.00
10474;BME280;5284;50.446;7.904;2023-01-29T11:08:32;99543.53;;;0.51;100.00
10474;BME280;5284;50.446;7.904;2023-01-29T11:13:42;99539.13;;;0.52;100.00
10474;BME280;5284;50.446;7.904;2023-01-29T11:18:49;99532.63;;;0.36;100.00
10474;BME280;5284;50.446;7.904;2023-01-29T11:24:05;99527.53;;;0.59;100.00
10474;BME280;5284;50.446;7.904;2023-01-29T11:29:32;99508.09;;;1.72;100.00
10474;BME280;5284;50.446;7.904;2023-01-29T11:34:55;99513.34;;;1.21;100.00
10474;BME280;5284;50.446;7.904;2023-01-29T11:39:58;99501.81;;;1.76;100.00
10474;BME280;5284;50.446;7.904;2023-01-29T11:45:10;99496.59;;;1.75;97.52
10474;BME280;5284;50.446;7.904;2023-01-29T11:50:28;99492.53;;;1.91;93.99
10474;BME280;5284;50.446;7.904;2023-01-29T11:55:34;99492.50;;;2.15;94.78
10474;BME280;5284;50.446;7.904;2023-01-29T12:00:52;99464.72;;;2.97;94.93
10474;BME280;5284;50.446;7.904;2023-01-29T12:05:57;99461.84;;;2.82;89.11
10474;BME280;5284;50.446;7.904;2023-01-29T12:11:11;99449.03;;;3.77;91.77
10474;BME280;5284;50.446;7.904;2023-01-29T12:16:24;99444.22;;;4.43;87.12
10474;BME280;5284;50.446;7.904;2023-01-29T12:21:33;99432.22;;;4.18;80.50
10474;BME280;5284;50.446;7.904;2023-01-29T12:26:43;99408.38;;;5.27;88.26
10474;BME280;5284;50.446;7.904;2023-01-29T12:31:54;99395.34;;;4.35;75.02
10474;BME280;5284;50.446;7.904;2023-01-29T12:37:05;99397.41;;;4.10;82.17
10474;BME280;5284;50.446;7.904;2023-01-29T12:42:16;99390.38;;;3.90;80.20
10474;BME280;5284;50.446;7.904;2023-01-29T12:47:26;99383.09;;;3.77;80.16
10474;BME280;5284;50.446;7.904;2023-01-29T12:52:38;99373.94;;;3.65;79.08
10474;BME280;5284;50.446;7.904;2023-01-29T12:57:45;99361.97;;;3.38;80.48
10474;BME280;5284;50.446;7.904;2023-01-29T13:02:54;99364.50;;;3.40;79.97
10474;BME280;5284;50.446;7.904;2023-01-29T13:08:03;99359.25;;;3.40;81.45
10474;BME280;5284;50.446;7.904;2023-01-29T13:13:14;99352.50;;;2.93;80.63
10474;BME280;5284;50.446;7.904;2023-01-29T13:18:36;99359.28;;;2.57;83.08
10474;BME280;5284;50.446;7.904;2023-01-29T13:23:44;99362.91;;;2.96;85.98
10474;BME280;5284;50.446;7.904;2023-01-29T13:28:50;99364.13;;;2.46;81.71
10474;BME280;5284;50.446;7.904;2023-01-29T13:34:00;99345.78;;;2.86;82.92
10474;BME280;5284;50.446;7.904;2023-01-29T13:39:06;99349.72;;;2.55;83.32
10474;BME280;5284;50.446;7.904;2023-01-29T13:44:20;99346.78;;;2.41;86.37
10474;BME280;5284;50.446;7.904;2023-01-29T13:49:28;99345.81;;;2.22;86.40
10474;BME280;5284;50.446;7.904;2023-01-29T13:54:33;99341.22;;;2.05;88.16
10474;BME280;5284;50.446;7.904;2023-01-29T13:59:51;99329.00;;;2.26;87.94
10474;BME280;5284;50.446;7.904;2023-01-29T14:10:34;99312.66;;;1.73;90.39
10474;BME280;5284;50.446;7.904;2023-01-29T14:15:38;99308.94;;;1.56;91.99
10474;BME280;5284;50.446;7.904;2023-01-29T14:20:50;99298.75;;;1.70;92.33
10474;BME280;5284;50.446;7.904;2023-01-29T14:25:57;99298.75;;;1.70;90.41
10474;BME280;5284;50.446;7.904;2023-01-29T14:31:01;99301.50;;;1.44;91.59
10474;BME280;5284;50.446;7.904;2023-01-29T14:36:08;99293.03;;;1.36;93.52
10474;BME280;5284;50.446;7.904;2023-01-29T14:41:20;99289.41;;;1.16;96.03
10474;BME280;5284;50.446;7.904;2023-01-29T14:46:42;99275.38;;;1.17;96.02
10474;BME280;5284;50.446;7.904;2023-01-29T14:51:45;99259.47;;;1.21;97.08
10474;BME280;5284;50.446;7.904;2023-01-29T14:56:58;99253.94;;;1.04;100.00
10474;BME280;5284;50.446;7.904;2023-01-29T15:02:09;99251.09;;;1.10;100.00
10474;BME280;5284;50.446;7.904;2023-01-29T15:07:24;99264.66;;;1.23;100.00
10474;BME280;5284;50.446;7.904;2023-01-29T15:12:32;99252.19;;;1.05;100.00
10474;BME280;5284;50.446;7.904;2023-01-29T15:17:40;99246.75;;;1.09;100.00
10474;BME280;5284;50.446;7.904;2023-01-29T15:22:47;99235.78;;;0.98;100.00
10474;BME280;5284;50.446;7.904;2023-01-29T15:27:52;99238.19;;;1.04;100.00
10474;BME280;5284;50.446;7.904;2023-01-29T15:32:56;99245.31;;;1.01;100.00
10474;BME280;5284;50.446;7.904;2023-01-29T15:38:02;99243.94;;;0.91;100.00
10474;BME280;5284;50.446;7.904;2023-01-29T15:43:19;99253.06;;;0.81;100.00
10474;BME280;5284;50.446;7.904;2023-01-29T15:48:27;99253.53;;;0.67;100.00
10474;BME280;5284;50.446;7.904;2023-01-29T15:53:36;99254.00;;;0.54;100.00
10474;BME280;5284;50.446;7.904;2023-01-29T15:58:41;99260.41;;;0.45;100.00
10474;BME280;5284;50.446;7.904;2023-01-29T16:03:46;99259.94;;;0.33;100.00
10474;BME280;5284;50.446;7.904;2023-01-29T16:08:52;99255.91;;;0.23;100.00
10474;BME280;5284;50.446;7.904;2023-01-29T16:13:57;99271.16;;;0.12;100.00
10474;BME280;5284;50.446;7.904;2023-01-29T16:19:00;99268.03;;;0.01;100.00
10474;BME280;5284;50.446;7.904;2023-01-29T16:24:06;99277.81;;;-0.05;100.00
10474;BME280;5284;50.446;7.904;2023-01-29T16:29:14;99271.19;;;-0.17;100.00
10474;BME280;5284;50.446;7.904;2023-01-29T16:34:23;99281.91;;;-0.24;100.00
10474;BME280;5284;50.446;7.904;2023-01-29T16:39:30;99272.63;;;-0.34;100.00
10474;BME280;5284;50.446;7.904;2023-01-29T16:44:36;99281.69;;;-0.46;100.00
10474;BME280;5284;50.446;7.904;2023-01-29T16:49:48;99278.75;;;-0.64;100.00
10474;BME280;5284;50.446;7.904;2023-01-29T16:54:51;99287.78;;;-0.74;100.00
10474;BME280;5284;50.446;7.904;2023-01-29T16:59:58;99285.28;;;-0.79;100.00
10474;BME280;5284;50.446;7.904;2023-01-29T17:05:06;99301.44;;;-0.95;100.00
10474;BME280;5284;50.446;7.904;2023-01-29T17:10:14;99310.84;;;-0.88;100.00
10474;BME280;5284;50.446;7.904;2023-01-29T17:15:43;99308.13;;;-0.84;100.00
10474;BME280;5284;50.446;7.904;2023-01-29T17:20:47;99299.53;;;-0.89;100.00
10474;BME280;5284;50.446;7.904;2023-01-29T17:25:50;99289.00;;;-0.87;100.00
10474;BME280;5284;50.446;7.904;2023-01-29T17:30:55;99281.25;;;-0.90;100.00
10474;BME280;5284;50.446;7.904;2023-01-29T17:36:10;99271.75;;;-0.94;100.00
10474;BME280;5284;50.446;7.904;2023-01-29T17:41:17;99265.69;;;-0.95;100.00
10474;BME280;5284;50.446;7.904;2023-01-29T17:46:24;99266.78;;;-1.02;100.00
10474;BME280;5284;50.446;7.904;2023-01-29T17:51:27;99259.22;;;-1.12;100.00
10474;BME280;5284;50.446;7.904;2023-01-29T17:56:30;99263.63;;;-1.14;100.00
10474;BME280;5284;50.446;7.904;2023-01-29T18:01:34;99259.22;;;-1.12;100.00
10474;BME280;5284;50.446;7.904;2023-01-29T18:06:38;99245.25;;;-1.13;100.00
10474;BME280;5284;50.446;7.904;2023-01-29T18:11:41;99239.91;;;-1.08;100.00
10474;BME280;5284;50.446;7.904;2023-01-29T18:16:46;99236.31;;;-1.06;100.00
10474;BME280;5284;50.446;7.904;2023-01-29T18:21:49;99232.69;;;-1.00;100.00
10474;BME280;5284;50.446;7.904;2023-01-29T18:26:52;99238.72;;;-0.97;100.00
10474;BME280;5284;50.446;7.904;2023-01-29T18:31:57;99229.88;;;-0.93;100.00
10474;BME280;5284;50.446;7.904;2023-01-29T18:37:00;99226.56;;;-0.99;100.00
10474;BME280;5284;50.446;7.904;2023-01-29T18:42:03;99215.09;;;-0.95;100.00
10474;BME280;5284;50.446;7.904;2023-01-29T18:47:07;99201.22;;;-0.97;100.00
10474;BME280;5284;50.446;7.904;2023-01-29T18:52:10;99193.50;;;-1.02;100.00
10474;BME280;5284;50.446;7.904;2023-01-29T18:57:13;99187.44;;;-1.04;100.00
10474;BME280;5284;50.446;7.904;2023-01-29T19:02:37;99181.38;;;-1.06;100.00
10474;BME280;5284;50.446;7.904;2023-01-29T19:07:40;99196.19;;;-1.05;100.00
10474;BME280;5284;50.446;7.904;2023-01-29T19:12:43;99194.31;;;-1.00;100.00
10474;BME280;5284;50.446;7.904;2023-01-29T19:17:47;99194.31;;;-1.00;100.00
10474;BME280;5284;50.446;7.904;2023-01-29T19:22:50;99194.13;;;-0.94;100.00
10474;BME280;5284;50.446;7.904;2023-01-29T19:27:53;99192.41;;;-0.95;100.00
10474;BME280;5284;50.446;7.904;2023-01-29T19:32:57;99183.66;;;-0.94;100.00
10474;BME280;5284;50.446;7.904;2023-01-29T19:38:00;99168.00;;;-0.95;100.00
10474;BME280;5284;50.446;7.904;2023-01-29T19:43:03;99152.16;;;-0.91;100.00
10474;BME280;5284;50.446;7.904;2023-01-29T19:48:08;99159.97;;;-0.89;100.00
10474;BME280;5284;50.446;7.904;2023-01-29T19:53:11;99149.25;;;-0.80;100.00
10474;BME280;5284;50.446;7.904;2023-01-29T19:58:14;99139.84;;;-0.87;100.00
10474;BME280;5284;50.446;7.904;2023-01-29T20:03:18;99144.22;;;-0.88;100.00
10474;BME280;5284;50.446;7.904;2023-01-29T20:08:21;99135.16;;;-0.76;100.00
10474;BME280;5284;50.446;7.904;2023-01-29T20:13:24;99133.38;;;-0.76;100.00
10474;BME280;5284;50.446;7.904;2023-01-29T20:18:28;99138.59;;;-0.76;100.00
10474;BME280;5284;50.446;7.904;2023-01-29T20:23:31;99129.75;;;-0.72;100.00
10474;BME280;5284;50.446;7.904;2023-01-29T20:28:39;99121.91;;;-0.72;100.00
10474;BME280;5284;50.446;7.904;2023-01-29T20:33:43;99121.72;;;-0.66;100.00
10474;BME280;5284;50.446;7.904;2023-01-29T20:38:46;99111.31;;;-0.69;100.00
10474;BME280;5284;50.446;7.904;2023-01-29T20:43:49;99113.72;;;-0.61;100.00
10474;BME280;5284;50.446;7.904;2023-01-29T20:48:53;99106.88;;;-0.65;100.00
10474;BME280;5284;50.446;7.904;2023-01-29T20:53:57;99097.81;;;-0.55;100.00
10474;BME280;5284;50.446;7.904;2023-01-29T20:59:00;99089.16;;;-0.57;100.00
10474;BME280;5284;50.446;7.904;2023-01-29T21:04:05;99075.94;;;-0.54;100.00
10474;BME280;5284;50.446;7.904;2023-01-29T21:09:08;99062.72;;;-0.50;100.00
10474;BME280;5284;50.446;7.904;2023-01-29T21:14:11;99043.34;;;-0.44;100.00
10474;BME280;5284;50.446;7.904;2023-01-29T21:19:16;99034.72;;;-0.48;100.00
10474;BME280;5284;50.446;7.904;2023-01-29T21:24:19;99011.00;;;-0.43;100.00
10474;BME280;5284;50.446;7.904;2023-01-29T21:29:21;98995.28;;;-0.43;100.00
10474;BME280;5284;50.446;7.904;2023-01-29T21:34:26;98979.56;;;-0.43;100.00
10474;BME280;5284;50.446;7.904;2023-01-29T21:39:28;98987.25;;;-0.39;100.00
10474;BME280;5284;50.446;7.904;2023-01-29T21:44:31;98980.16;;;-0.35;100.00
10474;BME280;5284;50.446;7.904;2023-01-29T21:49:37;98975.81;;;-0.36;100.00
10474;BME280;5284;50.446;7.904;2023-01-29T21:54:40;98974.78;;;-0.31;100.00
10474;BME280;5284;50.446;7.904;2023-01-29T21:59:47;98966.81;;;-0.28;100.00
10474;BME280;5284;50.446;7.904;2023-01-29T22:04:55;98974.66;;;-0.28;100.00
10474;BME280;5284;50.446;7.904;2023-01-29T22:10:19;98959.84;;;-0.29;100.00
10474;BME280;5284;50.446;7.904;2023-01-29T22:15:22;98952.72;;;-0.25;100.00
10474;BME280;5284;50.446;7.904;2023-01-29T22:20:26;98948.34;;;-0.25;100.00
10474;BME280;5284;50.446;7.904;2023-01-29T22:25:31;98950.97;;;-0.25;100.00
10474;BME280;5284;50.446;7.904;2023-01-29T22:30:34;98947.44;;;-0.24;100.00
10474;BME280;5284;50.446;7.904;2023-01-29T22:35:38;98931.66;;;-0.22;100.00
10474;BME280;5284;50.446;7.904;2023-01-29T22:40:48;98929.03;;;-0.22;100.00
10474;BME280;5284;50.446;7.904;2023-01-29T22:45:50;98926.28;;;-0.19;100.00
10474;BME280;5284;50.446;7.904;2023-01-29T22:50:58;98926.22;;;-0.16;100.00
10474;BME280;5284;50.446;7.904;2023-01-29T22:56:11;98932.28;;;-0.16;100.00
10474;BME280;5284;50.446;7.904;2023-01-29T23:01:16;98927.00;;;-0.14;100.00
10474;BME280;5284;50.446;7.904;2023-01-29T23:06:21;98924.28;;;-0.11;100.00
10474;BME280;5284;50.446;7.904;2023-01-29T23:11:24;98926.72;;;-0.07;100.00
10474;BME280;5284;50.446;7.904;2023-01-29T23:16:27;98916.34;;;-0.10;100.00
10474;BME280;5284;50.446;7.904;2023-01-29T23:21:31;98932.84;;;-0.08;100.00
10474;BME280;5284;50.446;7.904;2023-01-29T23:26:34;98925.63;;;-0.02;100.00
10474;BME280;5284;50.446;7.904;2023-01-29T23:31:54;98920.44;;;-0.03;100.00
10474;BME280;5284;50.446;7.904;2023-01-29T23:36:58;98911.59;;;0.01;100.00
10474;BME280;5284;50.446;7.904;2023-01-29T23:42:01;98924.59;;;0.02;100.00
10474;BME280;5284;50.446;7.904;2023-01-29T23:47:04;98900.09;;;0.03;100.00
10474;BME280;5284;50.446;7.904;2023-01-29T23:52:08;98888.81;;;0.01;100.00
10474;BME280;5284;50.446;7.904;2023-01-29T23:57:11;98870.47;;;0.01;100.00
